sensor_id;sensor_type;location;lat;lon;timestamp;temperature;humidity
3758;DHT22;1894;51.038;13.692;2023-06-22T00:00:12;21.00;99.90
3758;DHT22;1894;51.038;13.692;2023-06-22T00:02:39;20.90;99.90
3758;DHT22;1894;51.038;13.692;2023-06-22T00:05:06;20.90;99.90
3758;DHT22;1894;51.038;13.692;2023-06-22T00:07:34;20.90;99.90
3758;DHT22;1894;51.038;13.692;2023-06-22T00:10:01;21.00;99.90
3758;DHT22;1894;51.038;13.692;2023-06-22T00:12:28;21.00;99.90
3758;DHT22;1894;51.038;13.692;2023-06-22T00:14:55;21.00;99.90
3758;DHT22;1894;51.038;13.692;2023-06-22T00:17:22;21.00;99.90
3758;DHT22;1894;51.038;13.692;2023-06-22T00:19:49;20.90;99.90
3758;DHT22;1894;51.038;13.692;2023-06-22T00:22:20;20.90;99.90
3758;DHT22;1894;51.038;13.692;2023-06-22T00:24:56;20.80;99.90
3758;DHT22;1894;51.038;13.692;2023-06-22T00:27:23;20.80;99.90
3758;DHT22;1894;51.038;13.692;2023-06-22T00:29:50;20.80;99.90
3758;DHT22;1894;51.038;13.692;2023-06-22T00:32:17;20.90;99.90
3758;DHT22;1894;51.038;13.692;2023-06-22T00:34:47;20.90;99.90
3758;DHT22;1894;51.038;13.692;2023-06-22T00:37:14;20.80;99.90
3758;DHT22;1894;51.038;13.692;2023-06-22T00:39:41;20.80;99.90
3758;DHT22;1894;51.038;13.692;2023-06-22T00:42:08;20.70;99.90
3758;DHT22;1894;51.038;13.692;2023-06-22T00:44:36;20.70;99.90
3758;DHT22;1894;51.038;13.692;2023-06-22T00:47:03;20.70;99.90
3758;DHT22;1894;51.038;13.692;2023-06-22T00:49:31;20.70;99.90
3758;DHT22;1894;51.038;13.692;2023-06-22T00:51:58;20.70;99.90
3758;DHT22;1894;51.038;13.692;2023-06-22T00:54:26;20.60;99.90
3758;DHT22;1894;51.038;13.692;2023-06-22T00:56:55;20.60;99.90
3758;DHT22;1894;51.038;13.692;2023-06-22T00:59:24;20.50;99.90
3758;DHT22;1894;51.038;13.692;2023-06-22T01:01:53;20.50;99.90
3758;DHT22;1894;51.038;13.692;2023-06-22T01:04:21;20.50;99.90
3758;DHT22;1894;51.038;13.692;2023-06-22T01:09:57;20.50;99.90
3758;DHT22;1894;51.038;13.692;2023-06-22T01:12:30;20.50;99.90
3758;DHT22;1894;51.038;13.692;2023-06-22T01:15:17;20.50;99.90
3758;DHT22;1894;51.038;13.692;2023-06-22T01:17:48;20.50;99.90
3758;DHT22;1894;51.038;13.692;2023-06-22T01:20:17;20.40;99.90
3758;DHT22;1894;51.038;13.692;2023-06-22T01:23:09;20.30;99.90
3758;DHT22;1894;51.038;13.692;2023-06-22T01:25:47;20.20;99.90
3758;DHT22;1894;51.038;13.692;2023-06-22T01:28:30;20.20;99.90
3758;DHT22;1894;51.038;13.692;2023-06-22T01:30:58;20.10;99.90
3758;DHT22;1894;51.038;13.692;2023-06-22T01:33:38;20.00;99.90
3758;DHT22;1894;51.038;13.692;2023-06-22T01:36:06;20.00;99.90
3758;DHT22;1894;51.038;13.692;2023-06-22T01:38:34;19.90;99.90
3758;DHT22;1894;51.038;13.692;2023-06-22T01:41:02;19.80;99.90
3758;DHT22;1894;51.038;13.692;2023-06-22T01:43:30;19.90;99.90
3758;DHT22;1894;51.038;13.692;2023-06-22T01:46:00;19.90;99.90
3758;DHT22;1894;51.038;13.692;2023-06-22T01:48:28;19.90;99.90
3758;DHT22;1894;51.038;13.692;2023-06-22T01:50:55;19.80;99.90
3758;DHT22;1894;51.038;13.692;2023-06-22T01:53:23;19.80;99.90
3758;DHT22;1894;51.038;13.692;2023-06-22T01:55:51;19.80;99.90
3758;DHT22;1894;51.038;13.692;2023-06-22T01:58:21;19.70;99.90
3758;DHT22;1894;51.038;13.692;2023-06-22T02:01:00;19.60;99.90
3758;DHT22;1894;51.038;13.692;2023-06-22T02:03:35;19.40;99.90
3758;DHT22;1894;51.038;13.692;2023-06-22T02:06:07;19.40;99.90
3758;DHT22;1894;51.038;13.692;2023-06-22T02:08:41;19.50;99.90
3758;DHT22;1894;51.038;13.692;2023-06-22T02:11:11;19.50;99.90
3758;DHT22;1894;51.038;13.692;2023-06-22T02:13:40;19.50;99.90
3758;DHT22;1894;51.038;13.692;2023-06-22T02:16:11;19.50;99.90
3758;DHT22;1894;51.038;13.692;2023-06-22T02:18:48;19.40;99.90
3758;DHT22;1894;51.038;13.692;2023-06-22T02:21:19;19.30;99.90
3758;DHT22;1894;51.038;13.692;2023-06-22T02:23:47;19.40;99.90
3758;DHT22;1894;51.038;13.692;2023-06-22T02:26:16;19.40;99.90
3758;DHT22;1894;51.038;13.692;2023-06-22T02:28:44;19.30;99.90
3758;DHT22;1894;51.038;13.692;2023-06-22T02:31:12;19.30;99.90
3758;DHT22;1894;51.038;13.692;2023-06-22T02:33:39;19.40;99.90
3758;DHT22;1894;51.038;13.692;2023-06-22T02:36:07;19.30;99.90
3758;DHT22;1894;51.038;13.692;2023-06-22T02:38:36;19.30;99.90
3758;DHT22;1894;51.038;13.692;2023-06-22T02:41:03;19.30;99.90
3758;DHT22;1894;51.038;13.692;2023-06-22T02:43:30;19.30;99.90
3758;DHT22;1894;51.038;13.692;2023-06-22T02:45:57;19.20;99.90
3758;DHT22;1894;51.038;13.692;2023-06-22T02:48:24;19.20;99.90
3758;DHT22;1894;51.038;13.692;2023-06-22T02:50:52;19.20;99.90
3758;DHT22;1894;51.038;13.692;2023-06-22T02:53:19;19.20;99.90
3758;DHT22;1894;51.038;13.692;2023-06-22T02:55:47;19.30;99.90
3758;DHT22;1894;51.038;13.692;2023-06-22T02:58:14;19.30;99.90
3758;DHT22;1894;51.038;13.692;2023-06-22T03:00:42;19.10;99.90
3758;DHT22;1894;51.038;13.692;2023-06-22T03:03:09;19.00;99.90
3758;DHT22;1894;51.038;13.692;2023-06-22T03:05:37;19.00;99.90
3758;DHT22;1894;51.038;13.692;2023-06-22T03:08:07;18.90;99.90
3758;DHT22;1894;51.038;13.692;2023-06-22T03:10:35;18.90;99.90
3758;DHT22;1894;51.038;13.692;2023-06-22T03:13:02;18.80;99.90
3758;DHT22;1894;51.038;13.692;2023-06-22T03:15:30;18.80;99.90
3758;DHT22;1894;51.038;13.692;2023-06-22T03:18:01;18.70;99.90
3758;DHT22;1894;51.038;13.692;2023-06-22T03:20:28;18.70;99.90
3758;DHT22;1894;51.038;13.692;2023-06-22T03:23:00;18.80;99.90
3758;DHT22;1894;51.038;13.692;2023-06-22T03:25:28;18.90;99.90
3758;DHT22;1894;51.038;13.692;2023-06-22T03:27:55;19.10;99.90
3758;DHT22;1894;51.038;13.692;2023-06-22T03:30:22;19.20;99.90
3758;DHT22;1894;51.038;13.692;2023-06-22T03:32:57;19.30;99.90
3758;DHT22;1894;51.038;13.692;2023-06-22T03:35:25;19.30;99.90
3758;DHT22;1894;51.038;13.692;2023-06-22T03:37:53;19.30;99.90
3758;DHT22;1894;51.038;13.692;2023-06-22T03:40:22;19.30;99.90
3758;DHT22;1894;51.038;13.692;2023-06-22T03:42:56;19.30;99.90
3758;DHT22;1894;51.038;13.692;2023-06-22T03:45:23;19.30;99.90
3758;DHT22;1894;51.038;13.692;2023-06-22T03:47:50;19.40;99.90
3758;DHT22;1894;51.038;13.692;2023-06-22T03:50:33;19.40;99.90
3758;DHT22;1894;51.038;13.692;2023-06-22T03:53:16;19.40;99.90
3758;DHT22;1894;51.038;13.692;2023-06-22T03:55:55;19.40;99.90
3758;DHT22;1894;51.038;13.692;2023-06-22T03:58:48;19.50;99.90
3758;DHT22;1894;51.038;13.692;2023-06-22T04:02:05;19.50;99.90
3758;DHT22;1894;51.038;13.692;2023-06-22T04:04:41;19.50;99.90
3758;DHT22;1894;51.038;13.692;2023-06-22T04:07:10;19.50;99.90
3758;DHT22;1894;51.038;13.692;2023-06-22T04:09:48;19.70;99.90
3758;DHT22;1894;51.038;13.692;2023-06-22T04:12:16;19.70;99.90
3758;DHT22;1894;51.038;13.692;2023-06-22T04:14:46;19.70;99.90
3758;DHT22;1894;51.038;13.692;2023-06-22T04:17:25;19.70;99.90
3758;DHT22;1894;51.038;13.692;2023-06-22T04:20:11;19.90;99.90
3758;DHT22;1894;51.038;13.692;2023-06-22T04:23:07;20.10;99.90
3758;DHT22;1894;51.038;13.692;2023-06-22T04:26:02;20.10;99.90
3758;DHT22;1894;51.038;13.692;2023-06-22T04:28:55;20.20;99.90
3758;DHT22;1894;51.038;13.692;2023-06-22T04:31:40;20.30;99.90
3758;DHT22;1894;51.038;13.692;2023-06-22T04:34:13;20.30;99.90
3758;DHT22;1894;51.038;13.692;2023-06-22T04:37:04;20.40;99.90
3758;DHT22;1894;51.038;13.692;2023-06-22T04:39:34;20.70;99.90
3758;DHT22;1894;51.038;13.692;2023-06-22T04:42:05;20.80;99.90
3758;DHT22;1894;51.038;13.692;2023-06-22T04:44:33;20.90;99.90
3758;DHT22;1894;51.038;13.692;2023-06-22T04:47:01;21.00;99.90
3758;DHT22;1894;51.038;13.692;2023-06-22T04:49:31;21.20;99.90
3758;DHT22;1894;51.038;13.692;2023-06-22T04:52:10;21.30;99.90
3758;DHT22;1894;51.038;13.692;2023-06-22T04:54:39;21.40;99.90
3758;DHT22;1894;51.038;13.692;2023-06-22T04:57:15;21.60;99.90
3758;DHT22;1894;51.038;13.692;2023-06-22T04:59:45;21.70;99.90
3758;DHT22;1894;51.038;13.692;2023-06-22T05:02:12;21.70;99.90
3758;DHT22;1894;51.038;13.692;2023-06-22T05:04:39;21.90;99.90
3758;DHT22;1894;51.038;13.692;2023-06-22T05:07:07;22.10;99.90
3758;DHT22;1894;51.038;13.692;2023-06-22T05:09:34;22.30;99.90
3758;DHT22;1894;51.038;13.692;2023-06-22T05:12:02;22.40;99.90
3758;DHT22;1894;51.038;13.692;2023-06-22T05:14:29;22.60;99.90
3758;DHT22;1894;51.038;13.692;2023-06-22T05:16:57;22.60;99.90
3758;DHT22;1894;51.038;13.692;2023-06-22T05:19:31;22.90;99.90
3758;DHT22;1894;51.038;13.692;2023-06-22T05:22:01;23.20;99.90
3758;DHT22;1894;51.038;13.692;2023-06-22T05:24:28;23.40;99.90
3758;DHT22;1894;51.038;13.692;2023-06-22T05:26:55;23.60;99.90
3758;DHT22;1894;51.038;13.692;2023-06-22T05:29:22;23.70;99.90
3758;DHT22;1894;51.038;13.692;2023-06-22T05:31:49;23.60;99.90
3758;DHT22;1894;51.038;13.692;2023-06-22T05:34:16;23.50;99.90
3758;DHT22;1894;51.038;13.692;2023-06-22T05:36:43;23.70;99.90
3758;DHT22;1894;51.038;13.692;2023-06-22T05:39:12;23.90;99.90
3758;DHT22;1894;51.038;13.692;2023-06-22T05:41:41;24.10;99.90
3758;DHT22;1894;51.038;13.692;2023-06-22T05:44:08;24.20;99.90
3758;DHT22;1894;51.038;13.692;2023-06-22T05:46:35;24.30;99.90
3758;DHT22;1894;51.038;13.692;2023-06-22T05:49:02;24.40;99.90
3758;DHT22;1894;51.038;13.692;2023-06-22T05:51:29;24.30;99.90
3758;DHT22;1894;51.038;13.692;2023-06-22T05:53:56;24.50;99.90
3758;DHT22;1894;51.038;13.692;2023-06-22T05:56:23;24.70;99.90
3758;DHT22;1894;51.038;13.692;2023-06-22T05:58:50;24.90;99.90
3758;DHT22;1894;51.038;13.692;2023-06-22T06:01:18;24.80;99.90
3758;DHT22;1894;51.038;13.692;2023-06-22T06:03:45;24.30;99.90
3758;DHT22;1894;51.038;13.692;2023-06-22T06:06:22;24.20;99.90
3758;DHT22;1894;51.038;13.692;2023-06-22T06:08:55;24.20;99.90
3758;DHT22;1894;51.038;13.692;2023-06-22T06:11:22;24.30;99.90
3758;DHT22;1894;51.038;13.692;2023-06-22T06:13:49;24.60;99.90
3758;DHT22;1894;51.038;13.692;2023-06-22T06:16:16;25.00;99.90
3758;DHT22;1894;51.038;13.692;2023-06-22T06:18:43;25.40;99.90
3758;DHT22;1894;51.038;13.692;2023-06-22T06:21:10;25.90;99.90
3758;DHT22;1894;51.038;13.692;2023-06-22T06:23:37;26.30;99.90
3758;DHT22;1894;51.038;13.692;2023-06-22T06:26:04;26.50;99.90
3758;DHT22;1894;51.038;13.692;2023-06-22T06:28:34;26.60;99.90
3758;DHT22;1894;51.038;13.692;2023-06-22T06:31:02;26.40;99.90
3758;DHT22;1894;51.038;13.692;2023-06-22T06:33:29;26.30;99.90
3758;DHT22;1894;51.038;13.692;2023-06-22T06:35:58;26.20;99.90
3758;DHT22;1894;51.038;13.692;2023-06-22T06:38:31;26.30;99.90
3758;DHT22;1894;51.038;13.692;2023-06-22T06:41:00;25.80;99.90
3758;DHT22;1894;51.038;13.692;2023-06-22T06:43:27;25.30;99.90
3758;DHT22;1894;51.038;13.692;2023-06-22T06:45:55;25.20;99.90
3758;DHT22;1894;51.038;13.692;2023-06-22T06:48:22;25.30;99.90
3758;DHT22;1894;51.038;13.692;2023-06-22T06:50:49;25.40;99.90
3758;DHT22;1894;51.038;13.692;2023-06-22T06:53:16;25.50;99.90
3758;DHT22;1894;51.038;13.692;2023-06-22T06:55:43;25.10;99.90
3758;DHT22;1894;51.038;13.692;2023-06-22T06:58:12;25.10;99.90
3758;DHT22;1894;51.038;13.692;2023-06-22T07:00:40;25.30;99.90
3758;DHT22;1894;51.038;13.692;2023-06-22T07:03:07;25.80;99.90
3758;DHT22;1894;51.038;13.692;2023-06-22T07:05:35;26.10;99.90
3758;DHT22;1894;51.038;13.692;2023-06-22T07:08:02;26.20;99.90
3758;DHT22;1894;51.038;13.692;2023-06-22T07:10:29;26.60;99.90
3758;DHT22;1894;51.038;13.692;2023-06-22T07:12:57;26.60;99.90
3758;DHT22;1894;51.038;13.692;2023-06-22T07:15:24;26.80;99.90
3758;DHT22;1894;51.038;13.692;2023-06-22T07:17:51;26.80;99.90
3758;DHT22;1894;51.038;13.692;2023-06-22T07:20:19;26.80;99.90
3758;DHT22;1894;51.038;13.692;2023-06-22T07:22:46;27.30;99.90
3758;DHT22;1894;51.038;13.692;2023-06-22T07:25:14;27.70;99.90
3758;DHT22;1894;51.038;13.692;2023-06-22T07:27:59;27.60;99.90
3758;DHT22;1894;51.038;13.692;2023-06-22T07:30:26;27.90;99.90
3758;DHT22;1894;51.038;13.692;2023-06-22T07:32:54;28.30;99.90
3758;DHT22;1894;51.038;13.692;2023-06-22T07:35:22;28.50;99.90
3758;DHT22;1894;51.038;13.692;2023-06-22T07:37:49;28.40;99.90
3758;DHT22;1894;51.038;13.692;2023-06-22T07:40:16;28.30;99.90
3758;DHT22;1894;51.038;13.692;2023-06-22T07:42:44;28.10;99.90
3758;DHT22;1894;51.038;13.692;2023-06-22T07:45:11;28.10;99.90
3758;DHT22;1894;51.038;13.692;2023-06-22T07:47:38;28.00;99.90
3758;DHT22;1894;51.038;13.692;2023-06-22T07:50:05;27.80;99.90
3758;DHT22;1894;51.038;13.692;2023-06-22T07:52:33;28.00;99.90
3758;DHT22;1894;51.038;13.692;2023-06-22T07:55:00;28.20;99.90
3758;DHT22;1894;51.038;13.692;2023-06-22T07:57:27;28.00;99.90
3758;DHT22;1894;51.038;13.692;2023-06-22T08:00:00;28.40;99.90
3758;DHT22;1894;51.038;13.692;2023-06-22T08:02:38;28.30;99.90
3758;DHT22;1894;51.038;13.692;2023-06-22T08:05:06;28.60;99.90
3758;DHT22;1894;51.038;13.692;2023-06-22T08:07:46;28.90;99.90
3758;DHT22;1894;51.038;13.692;2023-06-22T08:10:14;29.30;99.90
3758;DHT22;1894;51.038;13.692;2023-06-22T08:12:42;29.40;99.90
3758;DHT22;1894;51.038;13.692;2023-06-22T08:15:09;29.00;99.90
3758;DHT22;1894;51.038;13.692;2023-06-22T08:17:37;29.00;99.90
3758;DHT22;1894;51.038;13.692;2023-06-22T08:20:07;29.30;99.90
3758;DHT22;1894;51.038;13.692;2023-06-22T08:22:43;29.70;99.90
3758;DHT22;1894;51.038;13.692;2023-06-22T08:25:11;29.50;99.90
3758;DHT22;1894;51.038;13.692;2023-06-22T08:27:38;29.40;99.90
3758;DHT22;1894;51.038;13.692;2023-06-22T08:30:09;29.20;99.90
3758;DHT22;1894;51.038;13.692;2023-06-22T08:32:37;29.50;99.90
3758;DHT22;1894;51.038;13.692;2023-06-22T08:35:05;29.50;99.90
3758;DHT22;1894;51.038;13.692;2023-06-22T08:37:35;29.20;99.90
3758;DHT22;1894;51.038;13.692;2023-06-22T08:40:05;29.30;99.90
3758;DHT22;1894;51.038;13.692;2023-06-22T08:42:40;29.50;99.90
3758;DHT22;1894;51.038;13.692;2023-06-22T08:45:07;29.60;99.90
3758;DHT22;1894;51.038;13.692;2023-06-22T08:47:35;29.50;99.90
3758;DHT22;1894;51.038;13.692;2023-06-22T08:50:02;29.40;99.90
3758;DHT22;1894;51.038;13.692;2023-06-22T08:52:30;29.60;99.90
3758;DHT22;1894;51.038;13.692;2023-06-22T08:54:58;29.50;99.90
3758;DHT22;1894;51.038;13.692;2023-06-22T08:57:25;29.30;99.90
3758;DHT22;1894;51.038;13.692;2023-06-22T08:59:52;29.20;99.90
3758;DHT22;1894;51.038;13.692;2023-06-22T09:02:20;29.50;99.90
3758;DHT22;1894;51.038;13.692;2023-06-22T09:04:47;29.60;99.90
3758;DHT22;1894;51.038;13.692;2023-06-22T09:07:15;29.50;99.90
3758;DHT22;1894;51.038;13.692;2023-06-22T09:09:49;29.80;99.90
3758;DHT22;1894;51.038;13.692;2023-06-22T09:12:20;29.70;99.90
3758;DHT22;1894;51.038;13.692;2023-06-22T09:14:49;30.10;99.90
3758;DHT22;1894;51.038;13.692;2023-06-22T09:17:16;30.10;99.90
3758;DHT22;1894;51.038;13.692;2023-06-22T09:19:49;30.40;99.90
3758;DHT22;1894;51.038;13.692;2023-06-22T09:22:16;30.60;99.90
3758;DHT22;1894;51.038;13.692;2023-06-22T09:24:43;30.80;99.90
3758;DHT22;1894;51.038;13.692;2023-06-22T09:27:10;30.50;99.90
3758;DHT22;1894;51.038;13.692;2023-06-22T09:29:37;29.80;99.90
3758;DHT22;1894;51.038;13.692;2023-06-22T09:32:04;30.10;99.90
3758;DHT22;1894;51.038;13.692;2023-06-22T09:34:31;30.30;99.90
3758;DHT22;1894;51.038;13.692;2023-06-22T09:36:58;30.50;99.90
3758;DHT22;1894;51.038;13.692;2023-06-22T09:39:27;30.50;99.90
3758;DHT22;1894;51.038;13.692;2023-06-22T09:41:54;30.40;99.90
3758;DHT22;1894;51.038;13.692;2023-06-22T09:44:22;30.70;99.90
3758;DHT22;1894;51.038;13.692;2023-06-22T09:46:49;30.70;99.90
3758;DHT22;1894;51.038;13.692;2023-06-22T09:49:16;31.00;99.90
3758;DHT22;1894;51.038;13.692;2023-06-22T09:51:43;31.40;99.90
3758;DHT22;1894;51.038;13.692;2023-06-22T09:54:10;31.10;99.90
3758;DHT22;1894;51.038;13.692;2023-06-22T09:56:38;30.80;99.90
3758;DHT22;1894;51.038;13.692;2023-06-22T09:59:05;31.00;99.90
3758;DHT22;1894;51.038;13.692;2023-06-22T10:01:44;30.70;99.90
3758;DHT22;1894;51.038;13.692;2023-06-22T10:04:11;30.50;99.90
3758;DHT22;1894;51.038;13.692;2023-06-22T10:06:39;31.00;99.90
3758;DHT22;1894;51.038;13.692;2023-06-22T10:09:08;31.30;99.90
3758;DHT22;1894;51.038;13.692;2023-06-22T10:11:36;31.50;99.90
3758;DHT22;1894;51.038;13.692;2023-06-22T10:14:04;31.60;99.90
3758;DHT22;1894;51.038;13.692;2023-06-22T10:16:38;31.40;99.90
3758;DHT22;1894;51.038;13.692;2023-06-22T10:19:05;31.90;99.50
3758;DHT22;1894;51.038;13.692;2023-06-22T10:21:32;31.40;99.20
3758;DHT22;1894;51.038;13.692;2023-06-22T10:24:01;31.10;99.90
3758;DHT22;1894;51.038;13.692;2023-06-22T10:26:33;31.30;99.90
3758;DHT22;1894;51.038;13.692;2023-06-22T10:29:01;31.70;99.90
3758;DHT22;1894;51.038;13.692;2023-06-22T10:31:43;31.80;99.10
3758;DHT22;1894;51.038;13.692;2023-06-22T10:34:10;31.60;99.90
3758;DHT22;1894;51.038;13.692;2023-06-22T10:36:38;31.20;99.90
3758;DHT22;1894;51.038;13.692;2023-06-22T10:39:05;31.20;99.90
3758;DHT22;1894;51.038;13.692;2023-06-22T10:41:32;31.70;99.90
3758;DHT22;1894;51.038;13.692;2023-06-22T10:44:00;32.00;99.90
3758;DHT22;1894;51.038;13.692;2023-06-22T10:46:27;32.40;98.50
3758;DHT22;1894;51.038;13.692;2023-06-22T10:48:54;32.00;98.50
3758;DHT22;1894;51.038;13.692;2023-06-22T10:51:24;31.90;99.10
3758;DHT22;1894;51.038;13.692;2023-06-22T10:53:52;31.70;98.20
3758;DHT22;1894;51.038;13.692;2023-06-22T10:56:19;31.30;98.10
3758;DHT22;1894;51.038;13.692;2023-06-22T10:58:46;32.10;99.00
3758;DHT22;1894;51.038;13.692;2023-06-22T11:01:13;32.60;97.10
3758;DHT22;1894;51.038;13.692;2023-06-22T11:04:01;32.10;97.70
3758;DHT22;1894;51.038;13.692;2023-06-22T11:06:28;32.30;98.00
3758;DHT22;1894;51.038;13.692;2023-06-22T11:08:55;32.40;97.50
3758;DHT22;1894;51.038;13.692;2023-06-22T11:11:41;32.20;97.70
3758;DHT22;1894;51.038;13.692;2023-06-22T11:14:08;32.40;97.80
3758;DHT22;1894;51.038;13.692;2023-06-22T11:16:36;32.30;97.10
3758;DHT22;1894;51.038;13.692;2023-06-22T11:19:12;32.60;98.70
3758;DHT22;1894;51.038;13.692;2023-06-22T11:21:39;33.40;97.20
3758;DHT22;1894;51.038;13.692;2023-06-22T11:24:07;33.60;95.60
3758;DHT22;1894;51.038;13.692;2023-06-22T11:26:34;34.00;94.90
3758;DHT22;1894;51.038;13.692;2023-06-22T11:29:02;33.60;94.30
3758;DHT22;1894;51.038;13.692;2023-06-22T11:31:35;33.30;95.70
3758;DHT22;1894;51.038;13.692;2023-06-22T11:34:03;33.50;95.60
3758;DHT22;1894;51.038;13.692;2023-06-22T11:36:30;33.60;94.40
3758;DHT22;1894;51.038;13.692;2023-06-22T11:39:00;33.50;93.60
3758;DHT22;1894;51.038;13.692;2023-06-22T11:41:27;34.20;94.00
3758;DHT22;1894;51.038;13.692;2023-06-22T11:43:54;34.10;93.00
3758;DHT22;1894;51.038;13.692;2023-06-22T11:46:21;34.30;92.90
3758;DHT22;1894;51.038;13.692;2023-06-22T11:48:49;33.90;94.30
3758;DHT22;1894;51.038;13.692;2023-06-22T11:51:19;34.30;92.90
3758;DHT22;1894;51.038;13.692;2023-06-22T11:53:49;34.60;92.40
3758;DHT22;1894;51.038;13.692;2023-06-22T11:56:16;34.70;93.70
3758;DHT22;1894;51.038;13.692;2023-06-22T11:58:44;35.50;91.10
3758;DHT22;1894;51.038;13.692;2023-06-22T12:01:11;35.80;90.10
3758;DHT22;1894;51.038;13.692;2023-06-22T12:03:42;37.00;86.10
3758;DHT22;1894;51.038;13.692;2023-06-22T12:06:12;37.90;83.90
3758;DHT22;1894;51.038;13.692;2023-06-22T12:08:39;38.80;80.10
3758;DHT22;1894;51.038;13.692;2023-06-22T12:11:08;40.00;72.30
3758;DHT22;1894;51.038;13.692;2023-06-22T12:13:38;40.90;70.00
3758;DHT22;1894;51.038;13.692;2023-06-22T12:16:08;40.90;67.60
3758;DHT22;1894;51.038;13.692;2023-06-22T12:18:39;40.00;67.40
3758;DHT22;1894;51.038;13.692;2023-06-22T12:21:07;38.80;68.60
3758;DHT22;1894;51.038;13.692;2023-06-22T12:23:36;40.50;67.00
3758;DHT22;1894;51.038;13.692;2023-06-22T12:26:04;42.00;63.40
3758;DHT22;1894;51.038;13.692;2023-06-22T12:28:31;42.60;60.50
3758;DHT22;1894;51.038;13.692;2023-06-22T12:30:58;44.00;55.70
3758;DHT22;1894;51.038;13.692;2023-06-22T12:33:25;44.80;54.90
3758;DHT22;1894;51.038;13.692;2023-06-22T12:35:52;45.30;49.90
3758;DHT22;1894;51.038;13.692;2023-06-22T12:38:20;44.10;49.20
3758;DHT22;1894;51.038;13.692;2023-06-22T12:40:47;44.80;50.50
3758;DHT22;1894;51.038;13.692;2023-06-22T12:43:16;46.00;48.60
3758;DHT22;1894;51.038;13.692;2023-06-22T12:45:43;45.00;46.80
3758;DHT22;1894;51.038;13.692;2023-06-22T12:48:10;45.70;46.40
3758;DHT22;1894;51.038;13.692;2023-06-22T12:50:38;46.60;44.20
3758;DHT22;1894;51.038;13.692;2023-06-22T12:53:05;46.00;44.00
3758;DHT22;1894;51.038;13.692;2023-06-22T12:55:33;44.70;45.30
3758;DHT22;1894;51.038;13.692;2023-06-22T12:58:00;45.80;43.80
3758;DHT22;1894;51.038;13.692;2023-06-22T13:00:27;45.90;43.40
3758;DHT22;1894;51.038;13.692;2023-06-22T13:02:54;45.90;42.00
3758;DHT22;1894;51.038;13.692;2023-06-22T13:05:23;46.30;42.90
3758;DHT22;1894;51.038;13.692;2023-06-22T13:07:50;46.30;42.40
3758;DHT22;1894;51.038;13.692;2023-06-22T13:10:17;46.90;42.50
3758;DHT22;1894;51.038;13.692;2023-06-22T13:12:44;45.90;42.00
3758;DHT22;1894;51.038;13.692;2023-06-22T13:15:12;45.60;42.50
3758;DHT22;1894;51.038;13.692;2023-06-22T13:17:39;46.00;40.70
3758;DHT22;1894;51.038;13.692;2023-06-22T13:20:07;44.50;42.80
3758;DHT22;1894;51.038;13.692;2023-06-22T13:22:35;44.20;44.40
3758;DHT22;1894;51.038;13.692;2023-06-22T13:25:11;45.30;42.00
3758;DHT22;1894;51.038;13.692;2023-06-22T13:27:42;45.40;42.30
3758;DHT22;1894;51.038;13.692;2023-06-22T13:30:10;45.40;42.50
3758;DHT22;1894;51.038;13.692;2023-06-22T13:32:41;44.90;43.30
3758;DHT22;1894;51.038;13.692;2023-06-22T13:35:10;44.70;42.50
3758;DHT22;1894;51.038;13.692;2023-06-22T13:37:37;44.70;44.90
3758;DHT22;1894;51.038;13.692;2023-06-22T13:40:07;46.50;41.50
3758;DHT22;1894;51.038;13.692;2023-06-22T13:42:35;47.10;39.20
3758;DHT22;1894;51.038;13.692;2023-06-22T13:45:02;47.00;39.20
3758;DHT22;1894;51.038;13.692;2023-06-22T13:47:30;46.40;39.30
3758;DHT22;1894;51.038;13.692;2023-06-22T13:49:58;44.20;41.90
3758;DHT22;1894;51.038;13.692;2023-06-22T13:52:25;43.70;42.80
3758;DHT22;1894;51.038;13.692;2023-06-22T13:54:52;44.20;42.00
3758;DHT22;1894;51.038;13.692;2023-06-22T13:57:19;45.30;39.50
3758;DHT22;1894;51.038;13.692;2023-06-22T13:59:46;45.90;40.30
3758;DHT22;1894;51.038;13.692;2023-06-22T14:02:14;47.20;39.80
3758;DHT22;1894;51.038;13.692;2023-06-22T14:04:41;45.60;39.50
3758;DHT22;1894;51.038;13.692;2023-06-22T14:07:08;45.80;39.60
3758;DHT22;1894;51.038;13.692;2023-06-22T14:09:35;46.40;39.60
3758;DHT22;1894;51.038;13.692;2023-06-22T14:12:06;47.90;38.00
3758;DHT22;1894;51.038;13.692;2023-06-22T14:14:33;48.50;36.20
3758;DHT22;1894;51.038;13.692;2023-06-22T14:17:01;47.10;36.70
3758;DHT22;1894;51.038;13.692;2023-06-22T14:19:28;44.50;38.90
3758;DHT22;1894;51.038;13.692;2023-06-22T14:21:55;43.60;40.00
3758;DHT22;1894;51.038;13.692;2023-06-22T14:24:23;43.70;42.10
3758;DHT22;1894;51.038;13.692;2023-06-22T14:26:55;45.60;39.90
3758;DHT22;1894;51.038;13.692;2023-06-22T14:29:22;45.80;39.20
3758;DHT22;1894;51.038;13.692;2023-06-22T14:31:49;45.60;37.60
3758;DHT22;1894;51.038;13.692;2023-06-22T14:34:16;44.20;41.10
3758;DHT22;1894;51.038;13.692;2023-06-22T14:36:44;44.60;40.60
3758;DHT22;1894;51.038;13.692;2023-06-22T14:39:11;44.90;41.50
3758;DHT22;1894;51.038;13.692;2023-06-22T14:41:38;45.20;39.60
3758;DHT22;1894;51.038;13.692;2023-06-22T14:44:05;45.60;40.10
3758;DHT22;1894;51.038;13.692;2023-06-22T14:46:32;44.80;38.80
3758;DHT22;1894;51.038;13.692;2023-06-22T14:48:59;45.80;38.70
3758;DHT22;1894;51.038;13.692;2023-06-22T14:51:26;46.30;38.00
3758;DHT22;1894;51.038;13.692;2023-06-22T14:53:54;47.10;37.80
3758;DHT22;1894;51.038;13.692;2023-06-22T14:56:21;48.10;36.10
3758;DHT22;1894;51.038;13.692;2023-06-22T14:58:51;49.00;35.50
3758;DHT22;1894;51.038;13.692;2023-06-22T15:01:22;48.40;35.60
3758;DHT22;1894;51.038;13.692;2023-06-22T15:03:49;46.80;35.30
3758;DHT22;1894;51.038;13.692;2023-06-22T15:06:19;45.10;36.90
3758;DHT22;1894;51.038;13.692;2023-06-22T15:08:47;44.70;38.20
3758;DHT22;1894;51.038;13.692;2023-06-22T15:11:14;43.70;39.80
3758;DHT22;1894;51.038;13.692;2023-06-22T15:13:42;46.10;38.50
3758;DHT22;1894;51.038;13.692;2023-06-22T15:16:09;46.00;38.00
3758;DHT22;1894;51.038;13.692;2023-06-22T15:18:36;46.80;37.60
3758;DHT22;1894;51.038;13.692;2023-06-22T15:21:05;46.00;38.20
3758;DHT22;1894;51.038;13.692;2023-06-22T15:23:32;46.00;39.60
3758;DHT22;1894;51.038;13.692;2023-06-22T15:26:03;46.50;37.70
3758;DHT22;1894;51.038;13.692;2023-06-22T15:28:32;47.60;37.90
3758;DHT22;1894;51.038;13.692;2023-06-22T15:31:02;47.70;35.00
3758;DHT22;1894;51.038;13.692;2023-06-22T15:33:29;47.60;35.70
3758;DHT22;1894;51.038;13.692;2023-06-22T15:35:58;46.40;37.40
3758;DHT22;1894;51.038;13.692;2023-06-22T15:38:32;46.10;38.60
3758;DHT22;1894;51.038;13.692;2023-06-22T15:41:00;45.10;39.40
3758;DHT22;1894;51.038;13.692;2023-06-22T15:43:30;45.60;40.10
3758;DHT22;1894;51.038;13.692;2023-06-22T15:45:57;44.60;40.00
3758;DHT22;1894;51.038;13.692;2023-06-22T15:48:24;45.40;39.30
3758;DHT22;1894;51.038;13.692;2023-06-22T15:50:51;44.10;38.90
3758;DHT22;1894;51.038;13.692;2023-06-22T15:53:18;45.60;38.00
3758;DHT22;1894;51.038;13.692;2023-06-22T15:55:47;46.20;37.90
3758;DHT22;1894;51.038;13.692;2023-06-22T15:58:15;45.40;37.60
3758;DHT22;1894;51.038;13.692;2023-06-22T16:00:44;43.90;40.20